Time;durP1;ratioP1;P1;durP2;ratioP2;P2;SDS_P1;SDS_P2;PMS_P1;PMS_P2;Temp;Humidity;BMP_temperature;BMP_pressure;BME280_temperature;BME280_humidity;BME280_pressure;Samples;Min_cycle;Max_cycle;Signal;HPM_P1;HPM_P2
2023/02/10 00:00:14;;;;;;;25.70;12.32;;;;;;;6.56;44.29;102846.66;5032166;27;98755;-71
2023/02/10 00:02:40;;;;;;;25.95;13.32;;;;;;;6.24;44.78;102851.41;5015315;27;98864;-71
2023/02/10 00:05:07;;;;;;;24.75;12.82;;;;;;;6.23;44.62;102849.66;5024998;27;99446;-70
2023/02/10 00:07:34;;;;;;;31.33;13.50;;;;;;;6.02;45.24;102842.31;5030345;27;97210;-72
2023/02/10 00:10:00;;;;;;;31.75;13.30;;;;;;;5.73;46.39;102854.91;5031262;28;98379;-72
2023/02/10 00:12:26;;;;;;;27.23;12.18;;;;;;;5.85;46.00;102852.50;5022974;28;98898;-68
2023/02/10 00:14:53;;;;;;;27.98;13.20;;;;;;;5.80;45.71;102848.91;5022840;28;98922;-68
2023/02/10 00:17:20;;;;;;;26.63;13.60;;;;;;;5.93;45.63;102848.28;5013884;27;98548;-68
2023/02/10 00:19:47;;;;;;;25.50;12.43;;;;;;;5.86;45.83;102850.75;5021779;27;96940;-69
2023/02/10 00:22:13;;;;;;;25.55;10.48;;;;;;;5.82;45.63;102843.69;5028992;27;99812;-68
2023/02/10 00:24:40;;;;;;;27.75;12.98;;;;;;;5.88;46.05;102847.34;5021601;27;98874;-70
2023/02/10 00:27:06;;;;;;;29.40;13.23;;;;;;;5.83;45.73;102851.59;5024773;28;96696;-69
2023/02/10 00:29:32;;;;;;;32.25;12.77;;;;;;;5.97;45.23;102852.72;5028299;28;97583;-70
2023/02/10 00:31:59;;;;;;;27.30;12.45;;;;;;;6.12;45.20;102846.84;5016831;27;99391;-68
2023/02/10 00:34:27;;;;;;;27.35;13.13;;;;;;;6.13;45.58;102845.13;5023030;27;98272;-68
2023/02/10 00:36:54;;;;;;;30.95;13.10;;;;;;;6.07;45.30;102845.03;5026924;28;96761;-68
2023/02/10 00:39:20;;;;;;;25.83;13.05;;;;;;;6.05;45.92;102850.22;5032595;27;96868;-72
2023/02/10 00:41:47;;;;;;;30.05;12.55;;;;;;;6.28;45.06;102854.13;5025263;28;98862;-71
2023/02/10 00:44:13;;;;;;;27.80;12.55;;;;;;;5.96;45.50;102853.63;5029803;27;98979;-72
2023/02/10 00:46:40;;;;;;;26.50;12.48;;;;;;;6.20;45.57;102849.59;5030034;28;96692;-71
2023/02/10 00:49:07;;;;;;;27.42;12.70;;;;;;;6.09;45.53;102861.69;5033038;28;96990;-71
2023/02/10 00:51:34;;;;;;;31.02;15.02;;;;;;;6.22;45.58;102867.16;5024183;27;99973;-71
2023/02/10 00:54:02;;;;;;;28.85;12.82;;;;;;;6.04;46.39;102866.84;5025769;28;97171;-71
2023/02/10 00:56:29;;;;;;;24.67;12.57;;;;;;;6.20;45.86;102870.59;5023422;28;96807;-72
2023/02/10 00:58:55;;;;;;;29.60;12.98;;;;;;;6.25;45.94;102868.94;5026800;28;97222;-69
2023/02/10 01:01:22;;;;;;;27.90;14.05;;;;;;;6.15;46.19;102873.16;5027901;27;99431;-68
2023/02/10 01:03:48;;;;;;;29.83;13.45;;;;;;;5.99;46.90;102887.75;5024945;27;101204;-69
2023/02/10 01:06:15;;;;;;;29.67;13.90;;;;;;;5.77;47.41;102885.59;5030885;27;97115;-69
2023/02/10 01:08:43;;;;;;;27.88;13.70;;;;;;;6.02;46.63;102880.81;5022078;28;96925;-68
2023/02/10 01:11:12;;;;;;;28.05;13.80;;;;;;;5.49;47.93;102889.44;5018521;27;98087;-68
2023/02/10 01:13:39;;;;;;;28.90;13.75;;;;;;;5.71;47.68;102885.47;5029903;27;99232;-68
2023/02/10 01:16:08;;;;;;;35.65;14.57;;;;;;;5.71;48.02;102882.84;5017962;27;97425;-69
2023/02/10 01:18:35;;;;;;;32.25;13.50;;;;;;;5.51;48.67;102886.84;5025448;27;96805;-69
2023/02/10 01:21:07;;;;;;;29.80;14.25;;;;;;;5.56;48.70;102880.84;5026053;27;98153;-70
2023/02/10 01:23:33;;;;;;;27.20;13.10;;;;;;;5.63;48.64;102887.09;5027173;27;98996;-68
2023/02/10 01:26:01;;;;;;;29.63;14.88;;;;;;;5.82;48.34;102881.31;5018029;28;96827;-68
2023/02/10 01:28:28;;;;;;;33.45;14.77;;;;;;;5.43;49.62;102893.69;5024441;27;97554;-69
2023/02/10 01:30:54;;;;;;;33.00;14.77;;;;;;;5.49;49.23;102884.19;5024927;27;98162;-69
2023/02/10 01:33:20;;;;;;;27.45;13.73;;;;;;;5.51;49.41;102884.22;5020359;28;99216;-69
2023/02/10 01:35:47;;;;;;;29.73;13.75;;;;;;;5.58;48.90;102888.72;5019022;27;96896;-69
2023/02/10 01:38:13;;;;;;;31.40;14.45;;;;;;;5.71;48.98;102882.84;5023988;27;96996;-68
2023/02/10 01:40:40;;;;;;;32.50;14.32;;;;;;;5.66;49.20;102887.13;5027837;27;97876;-68
2023/02/10 01:43:15;;;;;;;33.03;13.70;;;;;;;5.74;48.93;102884.66;5021923;27;98116;-69
2023/02/10 01:45:41;;;;;;;30.08;13.98;;;;;;;5.61;49.12;102884.44;5022983;28;97980;-69
2023/02/10 01:48:10;;;;;;;32.50;15.15;;;;;;;5.77;48.71;102877.72;5020013;28;97133;-68
2023/02/10 01:50:41;;;;;;;32.40;13.82;;;;;;;5.73;48.73;102880.25;5023784;27;99267;-69
2023/02/10 01:53:08;;;;;;;33.42;14.18;;;;;;;5.76;48.98;102873.34;5019582;28;98070;-68
2023/02/10 01:55:37;;;;;;;34.45;14.85;;;;;;;5.71;49.25;102866.25;5020456;27;97634;-69
2023/02/10 01:58:06;;;;;;;35.60;14.68;;;;;;;5.68;49.52;102855.69;5018708;28;96946;-67
2023/02/10 02:00:33;;;;;;;34.35;15.43;;;;;;;5.51;50.10;102861.50;5018434;28;98910;-67
2023/02/10 02:03:01;;;;;;;30.05;14.70;;;;;;;5.64;49.52;102857.38;5021335;28;99126;-70
2023/02/10 02:05:33;;;;;;;32.83;14.57;;;;;;;5.66;49.64;102866.13;5019010;28;97152;-67
2023/02/10 02:08:04;;;;;;;31.15;14.85;;;;;;;5.38;50.55;102880.47;5021633;28;97143;-67
2023/02/10 02:10:56;;;;;;;32.33;14.90;;;;;;;5.39;51.07;102876.09;5013561;28;98212;-67
2023/02/10 02:13:32;;;;;;;36.20;16.15;;;;;;;5.40;50.43;102872.63;5014325;28;101513;-71
2023/02/10 02:16:11;;;;;;;28.70;14.60;;;;;;;5.56;50.26;102885.19;5012957;28;97095;-71
2023/02/10 02:18:44;;;;;;;33.47;15.40;;;;;;;5.58;50.37;102881.72;5020471;28;97605;-71
2023/02/10 02:21:30;;;;;;;32.60;15.38;;;;;;;5.67;50.02;102891.50;5020316;28;99320;-71
2023/02/10 02:24:11;;;;;;;31.83;14.80;;;;;;;5.65;50.09;102889.72;5024122;28;99333;-74
2023/02/10 02:26:50;;;;;;;32.92;14.00;;;;;;;5.66;49.66;102892.38;5020498;28;97110;-73
2023/02/10 02:29:47;;;;;;;29.92;14.20;;;;;;;5.65;50.24;102898.47;5017599;27;96702;-71
2023/02/10 02:32:18;;;;;;;31.27;15.93;;;;;;;5.54;50.25;102898.28;5024528;27;101294;-71
2023/02/10 02:34:50;;;;;;;31.70;14.85;;;;;;;5.74;49.49;102896.03;5024757;27;99320;-72
2023/02/10 02:37:21;;;;;;;36.83;16.17;;;;;;;5.71;49.90;102900.34;5027519;27;96680;-71
2023/02/10 02:39:50;;;;;;;38.20;16.85;;;;;;;5.63;49.86;102897.56;5027289;28;98856;-71
2023/02/10 02:42:22;;;;;;;35.92;16.08;;;;;;;5.80;49.66;102896.13;5024575;28;102377;-72
2023/02/10 02:44:52;;;;;;;29.88;15.07;;;;;;;5.90;49.63;102892.88;5030725;27;101937;-72
2023/02/10 02:47:32;;;;;;;30.65;15.50;;;;;;;5.82;49.23;102890.91;5036581;27;97127;-72
2023/02/10 02:50:11;;;;;;;32.22;14.45;;;;;;;5.85;49.42;102896.22;5022797;28;97353;-71
2023/02/10 02:52:50;;;;;;;32.97;15.85;;;;;;;5.86;49.37;102896.25;5015438;27;99079;-69
2023/02/10 02:55:26;;;;;;;35.03;16.02;;;;;;;5.87;49.44;102882.31;5025679;27;98812;-69
2023/02/10 02:57:59;;;;;;;32.45;14.70;;;;;;;5.69;49.88;102895.06;5033943;27;97898;-68
2023/02/10 03:00:30;;;;;;;32.90;15.18;;;;;;;5.72;49.57;102881.09;5028675;27;96859;-69
2023/02/10 03:03:00;;;;;;;32.30;15.48;;;;;;;5.65;49.76;102889.72;5025468;27;98271;-67
2023/02/10 03:05:30;;;;;;;42.35;16.95;;;;;;;5.78;49.81;102883.84;5027387;27;98988;-69
2023/02/10 03:07:56;;;;;;;32.05;15.68;;;;;;;5.70;49.72;102891.59;5032867;27;97535;-70
2023/02/10 03:10:23;;;;;;;32.92;16.83;;;;;;;5.67;49.73;102895.88;5032369;28;96876;-68
2023/02/10 03:12:51;;;;;;;33.33;16.02;;;;;;;5.84;49.18;102892.69;5031223;27;98175;-68
2023/02/10 03:15:17;;;;;;;32.28;15.10;;;;;;;5.62;50.05;102895.81;5024758;28;99319;-69
2023/02/10 03:17:44;;;;;;;37.35;15.43;;;;;;;5.73;49.80;102896.88;5029261;27;98493;-69
2023/02/10 03:20:12;;;;;;;38.97;16.88;;;;;;;5.76;49.93;102910.06;5023864;27;98807;-69
2023/02/10 03:22:39;;;;;;;36.80;15.65;;;;;;;5.52;50.63;102905.22;5026270;27;98927;-69
2023/02/10 03:25:06;;;;;;;37.28;16.52;;;;;;;5.72;50.10;102902.97;5033512;27;100429;-68
2023/02/10 03:27:32;;;;;;;40.15;17.25;;;;;;;5.67;50.40;102909.88;5025383;28;96884;-69
2023/02/10 03:29:59;;;;;;;38.33;16.60;;;;;;;5.75;50.56;102900.41;5028883;28;96834;-68
2023/02/10 03:32:25;;;;;;;37.42;18.17;;;;;;;5.69;50.83;102908.19;5023931;27;98952;-68
2023/02/10 03:34:52;;;;;;;38.80;17.92;;;;;;;5.73;50.51;102903.84;5020764;27;99112;-71
2023/02/10 03:37:20;;;;;;;40.65;18.33;;;;;;;5.70;51.27;102909.06;5028956;28;98178;-71
2023/02/10 03:39:47;;;;;;;43.05;17.65;;;;;;;5.59;51.46;102914.09;5032523;27;98047;-72
2023/02/10 03:42:13;;;;;;;40.80;18.30;;;;;;;5.63;51.70;102905.44;5022629;27;98958;-72
2023/02/10 03:44:40;;;;;;;38.90;17.95;;;;;;;5.93;51.03;102906.03;5027375;28;98041;-71
2023/02/10 03:47:06;;;;;;;47.50;18.95;;;;;;;5.79;51.07;102919.72;5023416;27;98836;-71
2023/02/10 03:49:35;;;;;;;39.05;18.27;;;;;;;5.89;51.29;102919.97;5025202;27;96855;-71
2023/02/10 03:52:01;;;;;;;47.20;19.67;;;;;;;5.87;51.63;102919.03;5026391;28;99128;-71
2023/02/10 03:54:31;;;;;;;41.88;19.92;;;;;;;5.72;51.40;102926.59;5022229;28;99420;-74
2023/02/10 03:56:57;;;;;;;44.63;19.20;;;;;;;5.74;52.12;102927.50;5028086;28;98395;-72
2023/02/10 03:59:25;;;;;;;44.03;20.25;;;;;;;5.88;52.00;102936.56;5019150;28;96811;-71
2023/02/10 04:01:51;;;;;;;43.85;19.35;;;;;;;5.92;51.82;102930.50;5020953;28;102079;-72
2023/02/10 04:04:18;;;;;;;50.63;20.05;;;;;;;5.65;52.42;102932.56;5016286;28;99767;-70
2023/02/10 04:06:44;;;;;;;47.17;19.27;;;;;;;5.78;52.61;102917.94;5032336;27;97777;-73
2023/02/10 04:09:11;;;;;;;39.60;19.50;;;;;;;5.84;52.40;102908.44;5020764;28;97218;-72
2023/02/10 04:11:38;;;;;;;46.67;21.55;;;;;;;5.91;52.39;102904.22;5021396;28;99446;-73
2023/02/10 04:14:05;;;;;;;53.05;22.10;;;;;;;5.74;52.91;102890.78;5018931;28;100095;-73
2023/02/10 04:16:33;;;;;;;48.15;21.55;;;;;;;5.78;53.26;102895.22;5026831;28;96897;-69
2023/02/10 04:18:59;;;;;;;47.30;21.35;;;;;;;5.94;52.35;102889.44;5028021;28;97218;-69
2023/02/10 04:21:26;;;;;;;53.00;22.48;;;;;;;5.97;52.70;102892.09;5019919;28;98820;-69
2023/02/10 04:23:53;;;;;;;49.03;20.75;;;;;;;5.82;53.47;102891.81;5022552;27;101506;-69
2023/02/10 04:26:20;;;;;;;54.42;20.50;;;;;;;5.74;53.82;102897.75;5025056;27;96794;-71
2023/02/10 04:28:48;;;;;;;52.40;22.05;;;;;;;5.69;54.19;102899.41;5032535;28;96891;-70
2023/02/10 04:31:14;;;;;;;52.40;22.52;;;;;;;5.59;54.42;102906.22;5023826;28;98910;-68
2023/02/10 04:33:41;;;;;;;54.85;21.90;;;;;;;5.74;54.37;102903.91;5019842;28;98919;-68
2023/02/10 04:36:08;;;;;;;58.17;22.23;;;;;;;6.03;54.02;102919.31;5025932;28;96982;-68
2023/02/10 04:38:35;;;;;;;59.58;24.02;;;;;;;6.12;53.45;102920.34;5030060;27;98290;-69
2023/02/10 04:41:02;;;;;;;57.88;23.27;;;;;;;6.19;53.39;102935.34;5023936;28;98670;-68
2023/02/10 04:43:29;;;;;;;53.72;24.00;;;;;;;6.16;53.74;102926.56;5020645;27;97731;-69
2023/02/10 04:45:57;;;;;;;50.03;22.63;;;;;;;6.09;54.22;102929.94;5023652;27;96974;-69
2023/02/10 04:48:23;;;;;;;55.45;23.45;;;;;;;6.18;53.65;102917.81;5024303;27;98053;-68
2023/02/10 04:50:49;;;;;;;57.85;23.63;;;;;;;6.14;53.98;102921.28;5034520;27;99416;-68
2023/02/10 04:53:16;;;;;;;52.47;24.67;;;;;;;6.16;54.20;102924.81;5031449;27;98992;-68
2023/02/10 04:55:43;;;;;;;52.72;22.17;;;;;;;6.27;53.93;102930.22;5028085;27;97477;-69
2023/02/10 04:58:09;;;;;;;58.10;23.35;;;;;;;6.31;53.97;102921.53;5028641;27;97222;-68
2023/02/10 05:00:35;;;;;;;59.20;24.05;;;;;;;6.06;54.81;102936.00;5023605;28;100815;-68
2023/02/10 05:03:03;;;;;;;52.95;23.10;;;;;;;6.12;54.57;102929.97;5023722;28;99411;-67
2023/02/10 05:05:30;;;;;;;52.25;23.17;;;;;;;6.16;54.70;102918.69;5024361;28;96738;-68
2023/02/10 05:07:56;;;;;;;57.75;24.35;;;;;;;6.23;54.42;102933.69;5024123;27;96767;-68
2023/02/10 05:10:23;;;;;;;52.20;23.65;;;;;;;6.17;54.81;102923.94;5024008;27;98986;-68
2023/02/10 05:12:50;;;;;;;55.78;23.17;;;;;;;6.37;54.11;102932.13;5022705;27;99102;-68
2023/02/10 05:15:19;;;;;;;61.63;24.65;;;;;;;6.56;53.28;102930.72;5027708;27;96822;-68
2023/02/10 05:17:45;;;;;;;63.72;24.75;;;;;;;6.47;53.56;102939.34;5022401;28;98509;-68
2023/02/10 05:20:13;;;;;;;55.05;24.23;;;;;;;6.62;53.18;102934.31;5027042;27;102527;-67
2023/02/10 05:22:40;;;;;;;55.40;23.80;;;;;;;6.26;54.23;102933.72;5029643;27;98870;-67
2023/02/10 05:25:09;;;;;;;58.25;24.45;;;;;;;6.52;53.82;102935.03;5025535;28;96829;-68
2023/02/10 05:27:36;;;;;;;60.13;24.60;;;;;;;6.44;54.09;102927.88;5026538;27;96833;-69
2023/02/10 05:30:03;;;;;;;58.90;25.20;;;;;;;6.05;55.63;102935.97;5025404;27;98899;-68
2023/02/10 05:32:30;;;;;;;57.33;23.42;;;;;;;6.11;55.29;102936.06;5019734;28;98639;-69
2023/02/10 05:34:56;;;;;;;62.10;24.88;;;;;;;6.12;55.22;102940.47;5025343;27;96778;-69
2023/02/10 05:37:24;;;;;;;50.90;24.13;;;;;;;6.00;55.97;102941.13;5023599;27;97285;-70
2023/02/10 05:39:51;;;;;;;55.55;24.88;;;;;;;5.77;56.86;102937.19;5029004;27;101408;-69
2023/02/10 05:42:17;;;;;;;60.40;25.58;;;;;;;5.72;56.52;102949.31;5023964;28;99223;-69
2023/02/10 05:44:43;;;;;;;64.03;25.90;;;;;;;5.89;56.32;102940.06;5028640;27;96879;-69
2023/02/10 05:47:10;;;;;;;66.10;25.98;;;;;;;5.75;56.85;102946.75;5017521;28;96764;-70
2023/02/10 05:49:36;;;;;;;59.47;26.27;;;;;;;5.57;57.81;102944.66;5025709;27;97865;-70
2023/02/10 05:52:03;;;;;;;53.00;24.05;;;;;;;5.72;57.07;102947.56;5022144;28;98856;-69
2023/02/10 05:54:31;;;;;;;59.03;25.63;;;;;;;5.76;56.74;102941.53;5028216;27;97261;-69
2023/02/10 05:56:57;;;;;;;68.93;25.42;;;;;;;5.76;57.21;102941.53;5019195;27;96811;-70
2023/02/10 05:59:24;;;;;;;60.13;25.25;;;;;;;5.56;57.55;102933.28;5023781;28;98851;-69
2023/02/10 06:01:50;;;;;;;66.38;26.15;;;;;;;5.73;57.36;102932.72;5013787;27;99448;-69
2023/02/10 06:04:17;;;;;;;62.45;26.88;;;;;;;5.49;58.14;102944.50;5021611;27;98705;-69
2023/02/10 06:06:43;;;;;;;55.42;25.00;;;;;;;5.42;58.79;102950.47;5022357;27;98523;-68
2023/02/10 06:09:10;;;;;;;62.88;26.25;;;;;;;5.55;58.25;102951.59;5024312;27;99785;-69
2023/02/10 06:11:38;;;;;;;65.22;26.25;;;;;;;5.61;57.93;102951.72;5017938;27;98718;-68
2023/02/10 06:14:04;;;;;;;56.55;24.38;;;;;;;5.60;58.16;102956.09;5024524;27;97169;-71
2023/02/10 06:16:31;;;;;;;64.30;26.30;;;;;;;5.67;57.65;102950.97;5026658;27;96878;-70
2023/02/10 06:18:57;;;;;;;62.28;25.27;;;;;;;5.86;57.70;102958.31;5021988;27;101727;-69
2023/02/10 06:21:24;;;;;;;62.00;26.02;;;;;;;5.47;59.22;102961.06;5021422;27;98765;-67
2023/02/10 06:23:50;;;;;;;59.20;25.23;;;;;;;5.45;58.97;102966.25;5022984;28;97357;-69
2023/02/10 06:26:17;;;;;;;64.97;25.10;;;;;;;5.43;59.54;102969.72;5023908;28;96838;-69
2023/02/10 06:28:45;;;;;;;61.60;25.98;;;;;;;5.63;59.04;102972.75;5022780;27;99515;-69
2023/02/10 06:31:11;;;;;;;60.08;25.40;;;;;;;5.43;59.37;102967.09;5019110;27;98604;-69
2023/02/10 06:33:38;;;;;;;65.97;26.42;;;;;;;5.42;59.83;102974.06;5021072;27;97145;-68
2023/02/10 06:36:07;;;;;;;65.63;26.65;;;;;;;5.38;59.91;102980.09;5015981;27;97614;-70
2023/02/10 06:38:37;;;;;;;57.90;24.88;;;;;;;5.67;58.97;102988.56;5025782;27;99846;-72
2023/02/10 06:41:05;;;;;;;58.50;25.65;;;;;;;5.68;59.04;102981.59;5027190;27;99166;-72
2023/02/10 06:43:32;;;;;;;57.92;25.75;;;;;;;5.56;59.40;102975.25;5021440;28;97851;-72
2023/02/10 06:46:00;;;;;;;59.10;25.65;;;;;;;5.55;59.55;102975.22;5024258;28;97363;-72
2023/02/10 06:48:27;;;;;;;55.05;24.23;;;;;;;5.59;59.56;102971.78;5015072;28;98857;-75
2023/02/10 06:50:54;;;;;;;62.60;26.13;;;;;;;5.57;59.58;102977.03;5024690;27;103062;-73
2023/02/10 06:53:20;;;;;;;62.80;26.15;;;;;;;5.54;59.82;102976.06;5017710;27;97427;-72
2023/02/10 06:55:47;;;;;;;58.55;26.77;;;;;;;5.50;59.97;102980.38;5021341;27;96968;-71
2023/02/10 06:58:13;;;;;;;60.65;25.25;;;;;;;5.51;60.06;102982.13;5015969;27;97430;-73
2023/02/10 07:00:40;;;;;;;61.35;26.02;;;;;;;5.47;60.73;102990.78;5028616;27;99272;-71
2023/02/10 07:03:08;;;;;;;59.00;25.52;;;;;;;5.68;59.85;102992.09;5014929;28;97454;-72
2023/02/10 07:05:35;;;;;;;63.63;25.98;;;;;;;5.67;59.60;103004.31;5022027;28;97197;-73
2023/02/10 07:08:03;;;;;;;57.70;22.58;;;;;;;5.63;59.99;103002.50;5021279;27;101067;-71
2023/02/10 07:10:30;;;;;;;58.15;24.73;;;;;;;5.57;60.67;102994.50;5025859;27;97539;-72
2023/02/10 07:12:56;;;;;;;59.70;27.48;;;;;;;5.77;59.92;102993.16;5017903;28;97168;-72
2023/02/10 07:15:23;;;;;;;64.78;25.92;;;;;;;5.77;60.32;102997.53;5020038;27;97168;-72
2023/02/10 07:17:51;;;;;;;59.58;25.85;;;;;;;5.94;59.45;103002.28;5020653;27;100754;-71
2023/02/10 07:20:19;;;;;;;53.05;24.38;;;;;;;5.84;59.68;102999.41;5033093;27;101703;-72
2023/02/10 07:22:46;;;;;;;61.95;25.30;;;;;;;5.85;60.00;103007.28;5013924;28;96869;-72
2023/02/10 07:25:12;;;;;;;62.05;24.95;;;;;;;5.83;60.19;103011.66;5019635;27;97222;-72
2023/02/10 07:27:39;;;;;;;57.95;25.13;;;;;;;6.10;59.45;103018.31;5019685;27;98940;-72
2023/02/10 07:30:07;;;;;;;55.35;23.08;;;;;;;6.12;59.17;103022.72;5025379;27;96703;-70
2023/02/10 07:32:33;;;;;;;62.47;24.42;;;;;;;6.16;59.30;103023.69;5024160;28;96899;-69
2023/02/10 07:34:59;;;;;;;56.60;25.70;;;;;;;6.21;59.39;103019.41;5016697;28;97377;-68
2023/02/10 07:37:28;;;;;;;60.83;26.40;;;;;;;6.24;59.02;103025.56;5017480;28;98943;-68
2023/02/10 07:39:55;;;;;;;59.45;24.58;;;;;;;6.24;58.99;103024.69;5012428;28;98277;-70
2023/02/10 07:42:21;;;;;;;54.00;24.23;;;;;;;6.31;59.19;103027.47;5011012;28;97111;-71
2023/02/10 07:44:48;;;;;;;52.17;23.83;;;;;;;6.63;58.13;103032.41;5032008;27;96904;-69
2023/02/10 07:47:14;;;;;;;57.65;24.80;;;;;;;6.75;57.57;103030.88;5031406;27;102148;-70
2023/02/10 07:49:51;;;;;;;113.78;26.52;;;;;;;6.56;58.44;103030.53;5022636;27;101844;-74
2023/02/10 07:52:17;;;;;;;59.75;24.58;;;;;;;6.65;57.96;103035.94;5030277;28;96874;-69
2023/02/10 07:54:45;;;;;;;58.13;24.67;;;;;;;6.64;58.17;103035.03;5022868;28;97502;-69
2023/02/10 07:57:12;;;;;;;56.92;24.60;;;;;;;6.98;57.27;103036.47;5026732;28;98917;-70
2023/02/10 07:59:38;;;;;;;59.67;25.40;;;;;;;6.95;57.23;103038.19;5021202;28;100744;-68
2023/02/10 08:02:05;;;;;;;58.10;24.20;;;;;;;6.75;57.91;103044.00;5022098;27;97011;-69
2023/02/10 08:04:32;;;;;;;54.10;23.38;;;;;;;6.85;57.72;103042.41;5032138;27;96990;-69
2023/02/10 08:06:58;;;;;;;59.05;23.30;;;;;;;6.73;57.85;103042.19;5016983;28;99947;-69
2023/02/10 08:09:28;;;;;;;55.95;24.45;;;;;;;6.80;57.83;103047.59;5030767;28;98352;-69
2023/02/10 08:11:55;;;;;;;60.70;23.95;;;;;;;6.77;58.26;103050.16;5017501;28;97465;-71
2023/02/10 08:14:22;;;;;;;55.78;22.92;;;;;;;6.82;58.02;103052.88;5032459;28;96705;-72
2023/02/10 08:16:48;;;;;;;64.38;24.35;;;;;;;6.78;58.25;103057.19;5014300;28;97911;-71
2023/02/10 08:19:15;;;;;;;56.00;23.55;;;;;;;6.99;57.92;103047.88;5022679;28;98717;-72
2023/02/10 08:21:43;;;;;;;52.38;23.50;;;;;;;7.22;56.96;103049.97;5022673;28;97351;-73
2023/02/10 08:24:09;;;;;;;52.92;22.60;;;;;;;7.42;56.07;103052.91;5018701;28;97415;-72
2023/02/10 08:26:35;;;;;;;56.03;24.00;;;;;;;7.49;56.24;103052.13;5023600;28;98143;-71
2023/02/10 08:29:03;;;;;;;63.25;23.27;;;;;;;7.44;56.34;103064.34;5017994;28;98828;-73
2023/02/10 08:31:30;;;;;;;52.95;23.33;;;;;;;7.17;56.96;103067.44;5015910;28;98086;-73
2023/02/10 08:33:56;;;;;;;58.60;23.35;;;;;;;7.17;56.96;103064.81;5019604;28;97333;-72
2023/02/10 08:36:23;;;;;;;59.50;24.02;;;;;;;7.35;56.83;103068.59;5030035;27;99194;-72
2023/02/10 08:38:51;;;;;;;55.92;23.52;;;;;;;7.36;56.97;103072.97;5025806;28;99216;-71
2023/02/10 08:41:18;;;;;;;51.13;23.60;;;;;;;7.52;56.34;103078.50;5017199;28;96728;-71
2023/02/10 08:43:45;;;;;;;59.20;24.25;;;;;;;7.44;56.90;103069.59;5020113;28;97191;-72
2023/02/10 08:46:14;;;;;;;62.72;25.67;;;;;;;7.54;56.57;103078.53;5021017;28;100012;-72
2023/02/10 08:48:40;;;;;;;56.30;24.02;;;;;;;7.66;56.15;103075.16;5023217;28;99047;-72
2023/02/10 08:51:09;;;;;;;59.50;23.58;;;;;;;7.51;56.79;103079.34;5024177;28;96730;-71
2023/02/10 08:53:36;;;;;;;58.03;24.73;;;;;;;7.57;56.58;103079.44;5028045;27;97097;-72
2023/02/10 08:56:04;;;;;;;51.22;23.73;;;;;;;7.79;56.07;103072.72;5017090;28;98970;-72
2023/02/10 08:58:31;;;;;;;65.68;24.95;;;;;;;7.78;56.14;103077.97;5019124;28;98941;-72
2023/02/10 09:00:58;;;;;;;60.45;24.70;;;;;;;7.98;55.70;103066.81;5026538;28;96663;-70
2023/02/10 09:03:28;;;;;;;57.35;25.40;;;;;;;7.96;55.60;103068.53;5022728;28;97451;-71
2023/02/10 09:05:54;;;;;;;54.50;24.17;;;;;;;7.75;56.12;103073.53;5020150;27;98846;-70
2023/02/10 09:08:21;;;;;;;57.63;25.25;;;;;;;7.92;55.90;103081.66;5029010;28;99097;-70
2023/02/10 09:10:48;;;;;;;59.90;26.33;;;;;;;7.95;55.74;103076.41;5025576;28;96760;-69
2023/02/10 09:13:15;;;;;;;55.22;24.02;;;;;;;7.80;56.11;103082.38;5017749;27;97189;-69
2023/02/10 09:15:43;;;;;;;59.75;26.23;;;;;;;7.50;57.11;103077.59;5022195;27;102248;-69
2023/02/10 09:18:10;;;;;;;64.57;28.58;;;;;;;7.48;57.42;103074.03;5021360;27;99163;-70
2023/02/10 09:20:38;;;;;;;57.70;25.50;;;;;;;7.68;57.17;103082.19;5024484;27;96775;-70
2023/02/10 09:23:05;;;;;;;57.83;26.13;;;;;;;7.75;56.48;103094.59;5016625;27;97440;-71
2023/02/10 09:25:32;;;;;;;61.40;26.77;;;;;;;7.39;58.00;103087.06;5022451;28;99380;-70
2023/02/10 09:27:58;;;;;;;70.53;27.83;;;;;;;7.64;57.42;103092.69;5025494;27;99184;-70
2023/02/10 09:30:25;;;;;;;67.80;28.08;;;;;;;8.08;56.26;103095.88;5023135;27;97809;-70
2023/02/10 09:32:52;;;;;;;67.72;27.33;;;;;;;8.08;55.96;103094.13;5015755;27;97465;-69
2023/02/10 09:35:19;;;;;;;65.60;26.80;;;;;;;7.92;56.79;103090.44;5021334;27;97617;-70
2023/02/10 09:37:47;;;;;;;63.65;27.77;;;;;;;7.68;57.57;103087.47;5017658;27;98855;-70
2023/02/10 09:40:17;;;;;;;63.55;27.63;;;;;;;7.69;57.92;103099.75;5015713;28;96753;-70
2023/02/10 09:43:01;;;;;;;61.00;26.73;;;;;;;8.03;56.90;103101.09;5017107;27;97759;-70
2023/02/10 09:45:34;;;;;;;64.70;27.85;;;;;;;8.08;56.78;103096.75;5021219;28;98906;-69
2023/02/10 09:48:08;;;;;;;69.88;27.60;;;;;;;7.87;57.66;103101.78;5022791;28;102762;-69
2023/02/10 09:50:46;;;;;;;63.75;26.45;;;;;;;7.99;57.40;103105.44;5016078;27;97184;-70
2023/02/10 09:53:18;;;;;;;58.50;26.13;;;;;;;8.42;56.32;103112.97;5020318;28;97067;-70
2023/02/10 09:55:49;;;;;;;61.95;26.48;;;;;;;7.86;57.58;103106.16;5022675;27;99611;-69
2023/02/10 09:58:30;;;;;;;65.47;27.17;;;;;;;7.59;58.60;103114.56;5012009;28;98914;-69
2023/02/10 10:01:02;;;;;;;64.53;25.10;;;;;;;7.82;57.63;103111.34;5028922;28;96750;-70
2023/02/10 10:03:38;;;;;;;61.53;25.38;;;;;;;7.62;58.62;103129.47;5023527;27;97139;-69
2023/02/10 10:06:13;;;;;;;51.85;22.58;;;;;;;7.85;58.14;103129.81;5026949;28;98330;-70
2023/02/10 10:08:48;;;;;;;59.47;26.10;;;;;;;8.27;56.82;103135.63;5026522;28;99519;-70
2023/02/10 10:11:24;;;;;;;62.33;27.00;;;;;;;8.64;55.94;103130.81;5022583;27;97301;-70
2023/02/10 10:13:51;;;;;;;58.08;24.42;;;;;;;8.38;56.15;103119.97;5015865;27;97180;-70
2023/02/10 10:16:26;;;;;;;67.72;25.90;;;;;;;8.23;57.02;103125.91;5025560;27;98843;-69
2023/02/10 10:19:04;;;;;;;64.80;26.02;;;;;;;8.29;57.00;103126.00;5020762;27;98880;-70
2023/02/10 10:21:37;;;;;;;61.83;23.95;;;;;;;8.60;55.61;103123.75;5018319;27;97255;-70
2023/02/10 10:24:22;;;;;;;58.20;24.33;;;;;;;8.87;55.01;103123.97;5022079;27;96887;-72
2023/02/10 10:27:04;;;;;;;58.97;24.63;;;;;;;8.49;55.79;103128.88;5020001;27;98328;-68
2023/02/10 10:29:44;;;;;;;58.58;24.35;;;;;;;8.82;55.54;103130.97;5024343;27;98947;-69
2023/02/10 10:32:15;;;;;;;60.92;27.38;;;;;;;9.13;54.29;103118.94;5016542;27;97136;-69
2023/02/10 10:34:52;;;;;;;55.05;24.05;;;;;;;8.96;54.71;103120.56;5021891;28;96718;-70
2023/02/10 10:37:22;;;;;;;60.65;24.20;;;;;;;9.08;54.69;103123.28;5017881;27;98948;-70
2023/02/10 10:39:53;;;;;;;53.25;24.27;;;;;;;8.83;55.17;103118.69;5022011;27;99021;-68
2023/02/10 10:42:25;;;;;;;58.40;24.50;;;;;;;9.00;54.99;103112.69;5021086;27;97003;-69
2023/02/10 10:44:57;;;;;;;55.80;23.33;;;;;;;9.27;54.02;103116.41;5023193;27;97583;-69
2023/02/10 10:47:35;;;;;;;55.40;23.33;;;;;;;9.12;54.05;103114.56;5020287;27;98914;-70
2023/02/10 10:50:03;;;;;;;57.60;23.90;;;;;;;8.63;55.71;103119.38;5013826;27;99417;-69
2023/02/10 10:52:33;;;;;;;59.08;22.90;;;;;;;8.60;56.12;103115.84;5014170;28;98623;-70
2023/02/10 10:55:03;;;;;;;54.38;22.80;;;;;;;8.96;55.36;103125.81;5022400;27;97231;-71
2023/02/10 10:57:31;;;;;;;53.75;23.33;;;;;;;9.00;55.45;103117.06;5020650;28;98844;-69
2023/02/10 11:00:07;;;;;;;58.35;23.63;;;;;;;9.11;54.80;103108.41;5019554;28;97691;-70
2023/02/10 11:02:33;;;;;;;70.45;23.73;;;;;;;9.05;55.25;103110.09;5020603;28;96923;-69
2023/02/10 11:05:01;;;;;;;56.60;22.60;;;;;;;9.09;55.08;103106.59;5018545;27;96903;-71
2023/02/10 11:07:31;;;;;;;54.15;22.90;;;;;;;8.91;55.18;103104.69;5018586;28;99670;-70
2023/02/10 11:10:00;;;;;;;54.30;22.83;;;;;;;9.27;55.01;103100.56;5020360;28;98841;-69
2023/02/10 11:12:32;;;;;;;48.95;22.15;;;;;;;9.07;55.10;103088.13;5012057;27;97054;-69
2023/02/10 11:15:00;;;;;;;55.90;21.98;;;;;;;9.00;55.17;103081.03;5015786;28;96928;-69
2023/02/10 11:17:33;;;;;;;55.03;23.05;;;;;;;9.45;54.40;103084.88;5020326;28;97747;-71
2023/02/10 11:20:03;;;;;;;55.63;22.85;;;;;;;9.21;54.56;103080.31;5019208;27;99924;-71
2023/02/10 11:22:30;;;;;;;52.97;22.27;;;;;;;9.46;54.32;103078.72;5023944;27;97227;-69